createdAt,value
2018-04-22T00:01:31.945Z,13.67
2018-04-22T00:03:59.406Z,13.00
2018-04-22T00:06:26.857Z,10.73
2018-04-22T00:08:54.313Z,12.03
2018-04-22T00:11:21.773Z,11.40
2018-04-22T00:13:49.241Z,10.33
2018-04-22T00:16:16.697Z,11.13
2018-04-22T00:18:44.150Z,12.07
2018-04-22T00:21:11.616Z,11.37
2018-04-22T00:23:39.084Z,11.00
2018-04-22T00:26:06.541Z,13.57
2018-04-22T00:28:34.005Z,10.63
2018-04-22T00:31:02.222Z,10.93
2018-04-22T00:33:29.691Z,10.60
2018-04-22T00:35:57.152Z,15.13
2018-04-22T00:38:24.612Z,14.93
2018-04-22T00:40:52.074Z,11.80
2018-04-22T00:43:19.534Z,11.27
2018-04-22T00:45:47.023Z,10.63
2018-04-22T00:48:15.233Z,10.97
2018-04-22T00:50:42.693Z,13.20
2018-04-22T00:53:10.159Z,12.33
2018-04-22T00:55:37.613Z,13.13
2018-04-22T00:58:05.079Z,12.50
2018-04-22T01:00:32.545Z,13.10
2018-04-22T01:03:00.007Z,11.33
2018-04-22T01:05:27.464Z,11.47
2018-04-22T01:07:54.937Z,11.33
2018-04-22T01:10:22.390Z,11.87
2018-04-22T01:12:49.853Z,12.33
2018-04-22T01:15:17.322Z,12.53
2018-04-22T01:17:45.538Z,11.37
2018-04-22T01:20:13.002Z,13.57
2018-04-22T01:22:40.453Z,12.70
2018-04-22T01:25:07.919Z,11.40
2018-04-22T01:27:35.391Z,14.63
2018-04-22T01:30:02.853Z,11.50
2018-04-22T01:32:31.023Z,12.93
2018-04-22T01:34:58.470Z,11.37
2018-04-22T01:37:25.930Z,14.90
2018-04-22T01:39:53.376Z,13.57
2018-04-22T01:42:20.838Z,13.73
2018-04-22T01:44:48.301Z,12.70
2018-04-22T01:47:15.757Z,12.23
2018-04-22T01:49:43.203Z,12.93
2018-04-22T01:52:10.657Z,12.47
2018-04-22T01:54:38.122Z,10.93
2018-04-22T01:57:05.591Z,13.37
2018-04-22T01:59:33.050Z,11.60
2018-04-22T02:02:00.506Z,12.37
2018-04-22T02:04:27.965Z,11.13
2018-04-22T02:06:55.417Z,11.67
2018-04-22T02:09:22.877Z,10.33
2018-04-22T02:11:50.334Z,10.10
2018-04-22T02:14:17.792Z,10.30
2018-04-22T02:16:45.238Z,10.67
2018-04-22T02:19:12.697Z,10.70
2018-04-22T02:21:40.154Z,13.20
2018-04-22T02:24:07.633Z,12.33
2018-04-22T02:26:35.094Z,12.70
2018-04-22T02:29:02.552Z,12.57
2018-04-22T02:31:30.014Z,13.73
2018-04-22T02:33:57.461Z,15.23
2018-04-22T02:36:24.931Z,11.23
2018-04-22T02:38:52.369Z,10.63
2018-04-22T02:41:19.847Z,10.67
2018-04-22T02:43:47.307Z,11.17
2018-04-22T02:46:14.757Z,11.77
2018-04-22T02:48:42.215Z,11.50
2018-04-22T02:51:09.676Z,15.57
2018-04-22T02:53:37.129Z,12.97
2018-04-22T02:56:04.613Z,11.50
2018-04-22T02:58:32.078Z,11.23
2018-04-22T03:00:59.525Z,11.63
2018-04-22T03:03:26.989Z,11.30
2018-04-22T03:05:54.460Z,10.80
2018-04-22T03:08:22.093Z,11.10
2018-04-22T03:10:50.333Z,12.10
2018-04-22T03:13:17.796Z,13.03
2018-04-22T03:15:45.263Z,12.07
2018-04-22T03:18:12.709Z,12.97
2018-04-22T03:20:40.165Z,12.37
2018-04-22T03:23:07.617Z,13.43
2018-04-22T03:25:35.082Z,12.10
2018-04-22T03:28:02.549Z,13.07
2018-04-22T03:30:30.019Z,12.57
2018-04-22T03:32:58.256Z,12.30
2018-04-22T03:35:25.713Z,12.17
2018-04-22T03:37:53.166Z,12.70
2018-04-22T03:40:20.646Z,11.80
2018-04-22T03:42:48.097Z,12.73
2018-04-22T03:45:16.396Z,11.87
2018-04-22T03:47:43.866Z,14.90
2018-04-22T03:50:12.085Z,12.17
2018-04-22T03:52:39.545Z,11.97
2018-04-22T03:55:07.001Z,12.70
2018-04-22T03:57:34.455Z,12.57
2018-04-22T04:00:01.935Z,11.93
2018-04-22T04:02:29.391Z,12.30
2018-04-22T04:04:56.856Z,14.13
2018-04-22T04:07:24.322Z,12.77
2018-04-22T04:09:51.781Z,12.33
2018-04-22T04:12:19.243Z,12.60
2018-04-22T04:14:47.461Z,12.27
2018-04-22T04:17:14.922Z,11.17
2018-04-22T04:19:54.280Z,11.03
2018-04-22T04:22:33.643Z,11.37
2018-04-22T04:28:17.205Z,11.17
2018-04-22T04:30:44.701Z,11.53
2018-04-22T04:33:12.200Z,12.73
2018-04-22T04:35:40.445Z,17.57
2018-04-22T04:38:07.932Z,14.80
2018-04-22T04:40:35.414Z,13.17
2018-04-22T04:43:02.906Z,12.67
2018-04-22T04:45:30.956Z,11.53
2018-04-22T04:47:58.454Z,15.10
2018-04-22T04:50:25.950Z,11.47
2018-04-22T04:52:53.427Z,14.13
2018-04-22T04:55:20.916Z,11.80
2018-04-22T04:57:48.401Z,10.87
2018-04-22T05:00:15.940Z,11.63
2018-04-22T05:02:44.173Z,11.13
2018-04-22T05:05:11.663Z,10.93
2018-04-22T05:07:39.166Z,11.17
2018-04-22T05:10:06.649Z,11.43
2018-04-22T05:12:34.139Z,14.63
2018-04-22T05:15:02.386Z,13.30
2018-04-22T05:17:29.869Z,10.50
2018-04-22T05:19:57.346Z,10.60
2018-04-22T05:22:24.872Z,11.30
2018-04-22T05:24:52.353Z,11.23
2018-04-22T05:27:19.829Z,9.97
2018-04-22T05:29:47.316Z,10.47
2018-04-22T05:32:14.802Z,10.27
2018-04-22T05:34:42.282Z,9.20
2018-04-22T05:37:09.752Z,9.77
2018-04-22T05:39:37.237Z,11.20
2018-04-22T05:42:04.734Z,9.63
2018-04-22T05:44:32.212Z,8.63
2018-04-22T05:47:00.485Z,10.57
2018-04-22T05:49:27.951Z,9.53
2018-04-22T05:51:55.441Z,11.57
2018-04-22T05:54:22.925Z,9.63
2018-04-22T05:56:50.419Z,9.43
2018-04-22T05:59:17.904Z,8.53
2018-04-22T06:01:45.376Z,8.23
2018-04-22T06:04:13.619Z,7.83
2018-04-22T06:06:41.092Z,8.43
2018-04-22T06:09:09.334Z,10.30
2018-04-22T06:11:36.806Z,7.70
2018-04-22T06:14:04.293Z,10.23
2018-04-22T06:16:31.781Z,7.57
2018-04-22T06:18:59.253Z,7.83
2018-04-22T06:21:26.768Z,7.83
2018-04-22T06:23:54.237Z,9.10
2018-04-22T06:26:21.727Z,8.33
2018-04-22T06:28:49.232Z,6.97
2018-04-22T06:31:17.478Z,8.80
2018-04-22T06:33:44.968Z,8.43
2018-04-22T06:36:12.494Z,8.60
2018-04-22T06:38:40.759Z,6.30
2018-04-22T06:41:08.259Z,6.73
2018-04-22T06:43:35.739Z,8.80
2018-04-22T06:46:03.219Z,6.23
2018-04-22T06:48:30.739Z,7.97
2018-04-22T06:50:58.230Z,8.13
2018-04-22T06:53:25.755Z,6.80
2018-04-22T06:55:53.221Z,6.20
2018-04-22T06:58:20.704Z,11.30
2018-04-22T07:00:48.958Z,7.87
2018-04-22T07:03:17.206Z,6.53
2018-04-22T07:05:44.703Z,7.53
2018-04-22T07:08:12.201Z,5.93
2018-04-22T07:10:39.678Z,7.63
2018-04-22T07:13:07.157Z,7.60
2018-04-22T07:15:34.655Z,10.33
2018-04-22T07:18:02.138Z,6.70
2018-04-22T07:20:30.379Z,6.80
2018-04-22T07:22:57.861Z,6.73
2018-04-22T07:25:25.353Z,8.70
2018-04-22T07:27:52.824Z,6.30
2018-04-22T07:30:20.317Z,8.00
2018-04-22T07:32:47.793Z,7.77
2018-04-22T07:35:15.267Z,6.57
2018-04-22T07:37:42.753Z,6.37
2018-04-22T07:40:10.232Z,8.33
2018-04-22T07:42:37.773Z,7.97
2018-04-22T07:45:05.208Z,6.80
2018-04-22T07:47:32.691Z,5.80
2018-04-22T07:50:00.191Z,6.47
2018-04-22T07:52:27.681Z,5.97
2018-04-22T07:54:55.209Z,8.57
2018-04-22T07:57:23.445Z,8.10
2018-04-22T07:59:50.936Z,7.43
2018-04-22T08:02:18.423Z,6.07
2018-04-22T08:04:45.916Z,7.83
2018-04-22T08:07:13.401Z,7.53
2018-04-22T08:09:40.938Z,7.60
2018-04-22T08:12:08.425Z,7.97
2018-04-22T08:14:35.917Z,5.80
2018-04-22T08:17:03.474Z,6.80
2018-04-22T08:19:30.964Z,7.70
2018-04-22T08:21:58.464Z,6.07
2018-04-22T08:24:25.954Z,5.83
2018-04-22T08:26:53.431Z,7.47
2018-04-22T08:29:20.920Z,7.57
2018-04-22T08:31:48.409Z,7.20
2018-04-22T08:34:15.884Z,6.97
2018-04-22T08:36:43.355Z,5.83
2018-04-22T08:39:10.835Z,8.17
2018-04-22T08:41:38.304Z,9.83
2018-04-22T08:44:05.782Z,6.53
2018-04-22T08:46:33.264Z,6.23
2018-04-22T08:49:00.763Z,6.00
2018-04-22T08:51:28.260Z,5.73
2018-04-22T08:53:55.734Z,9.03
2018-04-22T08:56:23.233Z,8.13
2018-04-22T08:58:50.704Z,6.27
2018-04-22T09:01:18.207Z,7.80
2018-04-22T09:03:45.673Z,6.73
2018-04-22T09:06:13.160Z,6.53
2018-04-22T09:08:40.644Z,6.50
2018-04-22T09:11:08.120Z,7.00
2018-04-22T09:13:35.596Z,7.53
2018-04-22T09:16:03.069Z,6.90
2018-04-22T09:18:30.580Z,8.40
2018-04-22T09:20:58.826Z,8.60
2018-04-22T09:23:26.307Z,9.73
2018-04-22T09:25:53.801Z,10.47
2018-04-22T09:28:21.283Z,9.47
2018-04-22T09:30:48.769Z,7.83
2018-04-22T09:33:16.240Z,7.57
2018-04-22T09:35:43.773Z,7.20
2018-04-22T09:38:12.029Z,6.13
2018-04-22T09:40:39.516Z,7.10
2018-04-22T09:43:07.032Z,8.20
2018-04-22T09:45:34.472Z,7.07
2018-04-22T09:48:01.944Z,7.40
2018-04-22T09:50:29.419Z,10.07
2018-04-22T09:52:56.912Z,8.17
2018-04-22T09:55:24.427Z,6.97
2018-04-22T09:57:52.676Z,8.20
2018-04-22T10:00:25.815Z,7.30
2018-04-22T10:02:53.304Z,10.03
2018-04-22T10:05:22.621Z,8.30
2018-04-22T10:07:50.181Z,7.40
2018-04-22T10:10:17.647Z,9.00
2018-04-22T10:12:45.146Z,7.27
2018-04-22T10:15:12.666Z,10.47
2018-04-22T10:17:40.577Z,10.33
2018-04-22T10:20:08.526Z,8.93
2018-04-22T10:22:36.793Z,8.17
2018-04-22T10:25:05.820Z,11.77
2018-04-22T10:27:34.785Z,10.67
2018-04-22T10:30:04.083Z,8.50
2018-04-22T10:32:31.985Z,9.87
2018-04-22T10:35:00.168Z,10.60
2018-04-22T10:37:28.599Z,7.70
2018-04-22T10:39:56.858Z,9.57
2018-04-22T10:42:25.718Z,7.70
2018-04-22T10:44:54.069Z,6.73
2018-04-22T10:47:22.561Z,7.47
2018-04-22T10:49:50.868Z,7.90
2018-04-22T10:52:19.257Z,7.27
2018-04-22T10:54:47.665Z,6.27
2018-04-22T10:57:15.821Z,8.17
2018-04-22T10:59:44.088Z,8.73
2018-04-22T11:02:13.284Z,7.07
2018-04-22T11:04:41.721Z,16.20
2018-04-22T11:07:10.095Z,8.07
2018-04-22T11:09:38.444Z,5.07
2018-04-22T11:12:06.633Z,6.93
2018-04-22T11:14:35.634Z,6.93
2018-04-22T11:17:04.447Z,5.33
2018-04-22T11:19:32.542Z,6.30
2018-04-22T11:22:00.640Z,5.13
2018-04-22T11:24:28.662Z,5.67
2018-04-22T11:26:57.753Z,6.87
2018-04-22T11:29:25.974Z,6.97
2018-04-22T11:31:54.832Z,5.87
2018-04-22T11:34:23.647Z,6.37
2018-04-22T11:36:52.042Z,9.10
2018-04-22T11:39:20.158Z,5.53
2018-04-22T11:41:48.341Z,6.67
2018-04-22T11:44:16.507Z,8.60
2018-04-22T11:46:44.322Z,5.60
2018-04-22T11:49:12.174Z,8.00
2018-04-22T11:51:39.677Z,6.70
2018-04-22T11:54:07.176Z,5.10
2018-04-22T11:56:34.662Z,8.73
2018-04-22T11:59:02.921Z,6.30
2018-04-22T12:01:30.387Z,6.77
2018-04-22T12:03:57.862Z,5.83
2018-04-22T12:06:25.347Z,7.97
2018-04-22T12:08:52.843Z,6.27
2018-04-22T12:11:20.324Z,6.93
2018-04-22T12:13:47.832Z,5.33
2018-04-22T12:16:15.304Z,6.63
2018-04-22T12:18:42.780Z,5.70
2018-04-22T12:21:10.245Z,8.43
2018-04-22T12:23:37.723Z,6.67
2018-04-22T12:26:05.220Z,8.17
2018-04-22T12:28:32.707Z,10.37
2018-04-22T12:31:00.188Z,6.77
2018-04-22T12:33:27.660Z,5.10
2018-04-22T12:35:55.136Z,6.10
2018-04-22T12:38:22.602Z,9.17
2018-04-22T12:40:50.080Z,7.73
2018-04-22T12:43:17.548Z,6.33
2018-04-22T12:45:45.023Z,5.80
2018-04-22T12:48:13.256Z,5.60
2018-04-22T12:50:40.735Z,6.43
2018-04-22T12:53:08.216Z,6.63
2018-04-22T12:55:35.701Z,5.33
2018-04-22T12:58:03.175Z,7.27
2018-04-22T13:00:30.661Z,6.77
2018-04-22T13:02:58.127Z,5.10
2018-04-22T13:05:25.599Z,5.67
2018-04-22T13:07:53.073Z,4.73
2018-04-22T13:10:20.565Z,8.53
2018-04-22T13:12:48.050Z,5.60
2018-04-22T13:15:15.512Z,6.00
2018-04-22T13:17:42.998Z,5.73
2018-04-22T13:20:10.514Z,6.90
2018-04-22T13:22:38.009Z,7.00
2018-04-22T13:25:05.484Z,5.70
2018-04-22T13:27:33.188Z,5.07
2018-04-22T13:30:01.569Z,4.83
2018-04-22T13:32:29.179Z,6.77
2018-04-22T13:34:56.717Z,5.87
2018-04-22T13:37:24.228Z,6.23
2018-04-22T13:39:51.703Z,5.57
2018-04-22T13:42:19.190Z,4.83
2018-04-22T13:44:46.675Z,6.03
2018-04-22T13:47:14.171Z,5.10
2018-04-22T13:49:42.418Z,5.00
2018-04-22T13:52:09.935Z,5.87
2018-04-22T13:54:37.418Z,6.33
2018-04-22T13:57:04.914Z,5.60
2018-04-22T13:59:32.409Z,4.83
2018-04-22T14:02:00.656Z,5.80
2018-04-22T14:04:28.153Z,7.10
2018-04-22T14:06:55.638Z,8.33
2018-04-22T14:09:23.113Z,4.63
2018-04-22T14:11:50.596Z,5.47
2018-04-22T14:14:18.073Z,6.33
2018-04-22T14:16:45.537Z,8.17
2018-04-22T14:19:13.045Z,6.40
2018-04-22T14:21:40.534Z,5.57
2018-04-22T14:24:07.989Z,5.60
2018-04-22T14:26:35.464Z,6.07
2018-04-22T14:29:02.950Z,6.37
2018-04-22T14:31:30.448Z,4.07
2018-04-22T14:33:57.986Z,4.03
2018-04-22T14:36:25.475Z,5.63
2018-04-22T14:38:52.953Z,5.63
2018-04-22T14:41:20.424Z,4.63
2018-04-22T14:43:59.763Z,5.27
2018-04-22T14:46:28.006Z,3.93
2018-04-22T14:49:06.509Z,4.30
2018-04-22T14:51:34.763Z,5.67
2018-04-22T14:54:02.232Z,3.97
2018-04-22T14:56:29.704Z,9.77
2018-04-22T14:58:57.169Z,5.50
2018-04-22T15:01:24.637Z,5.63
2018-04-22T15:03:52.113Z,5.73
2018-04-22T15:06:20.436Z,5.77
2018-04-22T15:08:47.918Z,8.53
2018-04-22T15:11:15.388Z,4.47
2018-04-22T15:13:43.644Z,6.97
2018-04-22T15:16:11.121Z,5.33
2018-04-22T15:18:38.590Z,4.40
2018-04-22T15:21:06.065Z,5.27
2018-04-22T15:23:33.541Z,4.23
2018-04-22T15:26:01.020Z,7.43
2018-04-22T15:28:28.486Z,5.20
2018-04-22T15:30:55.975Z,7.83
2018-04-22T15:33:23.442Z,6.00
2018-04-22T15:35:50.919Z,8.17
2018-04-22T15:38:19.143Z,4.77
2018-04-22T15:40:46.620Z,5.07
2018-04-22T15:43:14.105Z,4.20
2018-04-22T15:45:42.445Z,4.50
2018-04-22T15:48:10.030Z,4.80
2018-04-22T15:50:37.503Z,4.63
2018-04-22T15:53:04.997Z,4.97
2018-04-22T15:55:32.464Z,3.67
2018-04-22T15:58:01.160Z,5.17
2018-04-22T16:00:28.633Z,5.33
2018-04-22T16:02:56.111Z,6.73
2018-04-22T16:05:23.578Z,6.40
2018-04-22T16:07:51.821Z,6.53
2018-04-22T16:10:19.299Z,8.33
2018-04-22T16:12:46.771Z,7.53
2018-04-22T16:15:15.017Z,7.30
2018-04-22T16:17:43.544Z,7.07
2018-04-22T16:20:11.031Z,5.27
2018-04-22T16:22:38.504Z,5.47
2018-04-22T16:25:06.748Z,4.87
2018-04-22T16:27:34.228Z,5.00
2018-04-22T16:30:02.491Z,5.57
2018-04-22T16:32:29.973Z,4.90
2018-04-22T16:34:57.461Z,8.10
2018-04-22T16:37:24.969Z,6.57
2018-04-22T16:39:52.455Z,5.87
2018-04-22T16:42:20.350Z,5.97
2018-04-22T16:44:47.846Z,5.67
2018-04-22T16:47:15.320Z,6.17
2018-04-22T16:49:42.829Z,4.70
2018-04-22T16:52:11.081Z,7.83
2018-04-22T16:54:38.547Z,5.13
2018-04-22T16:57:06.030Z,4.50
2018-04-22T16:59:33.508Z,6.97
2018-04-22T17:02:00.977Z,5.67
2018-04-22T17:04:29.216Z,7.30
2018-04-22T17:06:56.682Z,4.80
2018-04-22T17:09:24.173Z,4.03
2018-04-22T17:11:51.677Z,6.70
2018-04-22T17:14:19.166Z,4.00
2018-04-22T17:16:46.645Z,4.33
2018-04-22T17:19:14.116Z,4.90
2018-04-22T17:21:41.595Z,7.80
2018-04-22T17:24:09.887Z,6.80
2018-04-22T17:26:37.336Z,5.50
2018-04-22T17:29:04.824Z,6.90
2018-04-22T17:31:32.324Z,6.17
2018-04-22T17:33:59.825Z,5.57
2018-04-22T17:36:27.385Z,6.47
2018-04-22T17:38:54.849Z,7.40
2018-04-22T17:41:23.092Z,7.07
2018-04-22T17:43:50.561Z,7.07
2018-04-22T17:46:18.040Z,4.70
2018-04-22T17:48:45.522Z,5.03
2018-04-22T17:51:12.992Z,6.20
2018-04-22T17:53:40.488Z,6.80
2018-04-22T17:56:07.968Z,7.00
2018-04-22T17:58:35.445Z,5.97
2018-04-22T18:01:02.937Z,7.73
2018-04-22T18:03:31.415Z,7.97
2018-04-22T18:05:58.909Z,6.23
2018-04-22T18:10:49.194Z,5.63
2018-04-22T18:13:17.400Z,8.63
2018-04-22T18:15:44.862Z,5.23
2018-04-22T18:18:12.299Z,6.97
2018-04-22T18:20:39.737Z,8.10
2018-04-22T18:23:07.198Z,5.13
2018-04-22T18:25:34.649Z,7.17
2018-04-22T18:28:02.865Z,7.93
2018-04-22T18:30:30.317Z,6.90
2018-04-22T18:32:57.766Z,9.30
2018-04-22T18:35:25.226Z,9.33
2018-04-22T18:37:52.721Z,7.37
2018-04-22T18:40:20.154Z,9.87
2018-04-22T18:42:47.598Z,7.63
2018-04-22T18:45:15.062Z,11.40
2018-04-22T18:47:42.561Z,8.10
2018-04-22T18:50:10.786Z,11.30
2018-04-22T18:52:38.230Z,7.23
2018-04-22T18:55:05.692Z,14.23
2018-04-22T18:57:33.152Z,10.37
2018-04-22T19:00:00.610Z,11.40
2018-04-22T19:02:28.071Z,15.10
2018-04-22T19:04:55.526Z,14.00
2018-04-22T19:07:23.742Z,15.00
2018-04-22T19:09:51.197Z,14.70
2018-04-22T19:12:18.658Z,14.30
2018-04-22T19:14:46.123Z,16.47
2018-04-22T19:17:13.628Z,17.87
2018-04-22T19:19:41.029Z,12.70
2018-04-22T19:22:08.477Z,12.33
2018-04-22T19:24:35.937Z,14.20
2018-04-22T19:27:03.401Z,15.77
2018-04-22T19:29:30.867Z,17.73
2018-04-22T19:31:58.327Z,15.07
2018-04-22T19:34:25.779Z,15.90
2018-04-22T19:36:53.226Z,15.90
2018-04-22T19:39:20.681Z,13.80
2018-04-22T19:41:48.145Z,13.17
2018-04-22T19:44:15.597Z,15.63
2018-04-22T19:46:43.054Z,15.40
2018-04-22T19:49:10.517Z,14.37
2018-04-22T19:51:38.735Z,16.30
2018-04-22T19:54:06.189Z,14.37
2018-04-22T19:56:33.649Z,12.07
2018-04-22T19:59:01.120Z,14.27
2018-04-22T20:01:28.589Z,11.30
2018-04-22T20:03:56.046Z,11.47
2018-04-22T20:06:23.501Z,13.97
2018-04-22T20:08:50.960Z,11.27
2018-04-22T20:11:19.192Z,12.03
2018-04-22T20:13:46.656Z,10.87
2018-04-22T20:16:14.113Z,13.63
2018-04-22T20:18:41.566Z,11.83
2018-04-22T20:21:09.030Z,10.57
2018-04-22T20:23:36.492Z,13.13
2018-04-22T20:26:03.927Z,9.80
2018-04-22T20:28:32.150Z,9.43
2018-04-22T20:30:59.595Z,10.63
2018-04-22T20:33:27.075Z,11.53
2018-04-22T20:35:54.553Z,9.60
2018-04-22T20:38:22.013Z,8.33
2018-04-22T20:40:49.629Z,10.40
2018-04-22T20:43:17.161Z,9.93
2018-04-22T20:45:44.620Z,11.13
2018-04-22T20:48:12.081Z,9.60
2018-04-22T20:50:39.521Z,8.00
2018-04-22T20:53:07.742Z,9.93
2018-04-22T20:55:35.966Z,10.93
2018-04-22T20:58:04.193Z,11.73
2018-04-22T21:00:31.646Z,12.60
2018-04-22T21:02:59.865Z,9.33
2018-04-22T21:05:28.074Z,10.23
2018-04-22T21:07:55.531Z,11.17
2018-04-22T21:10:22.982Z,9.97
2018-04-22T21:12:50.431Z,9.57
2018-04-22T21:15:17.883Z,9.07
2018-04-22T21:17:45.321Z,7.87
2018-04-22T21:20:13.639Z,10.50
2018-04-22T21:22:41.093Z,8.83
2018-04-22T21:25:08.562Z,7.10
2018-04-22T21:27:36.010Z,9.13
2018-04-22T21:30:03.458Z,8.23
2018-04-22T21:32:30.913Z,9.07
2018-04-22T21:34:58.373Z,8.00
2018-04-22T21:37:25.829Z,6.80
2018-04-22T21:39:53.294Z,6.93
2018-04-22T21:42:20.742Z,8.20
2018-04-22T21:44:48.206Z,9.50
2018-04-22T21:47:15.671Z,8.10
2018-04-22T21:49:43.114Z,7.10
2018-04-22T21:52:10.571Z,8.80
2018-04-22T21:54:38.031Z,8.87
2018-04-22T21:57:05.481Z,8.43
2018-04-22T21:59:32.921Z,7.90
2018-04-22T22:02:01.142Z,6.83
2018-04-22T22:04:28.634Z,8.73
2018-04-22T22:06:56.037Z,7.00
2018-04-22T22:09:23.512Z,6.93
2018-04-22T22:11:50.956Z,8.10
2018-04-22T22:14:18.417Z,6.83
2018-04-22T22:16:45.870Z,6.13
2018-04-22T22:19:13.317Z,7.67
2018-04-22T22:21:40.778Z,8.37
2018-04-22T22:24:08.209Z,5.57
2018-04-22T22:26:36.437Z,7.20
2018-04-22T22:29:03.884Z,7.83
2018-04-22T22:31:31.338Z,8.33
2018-04-22T22:33:58.802Z,6.47
2018-04-22T22:36:26.262Z,6.07
2018-04-22T22:38:53.714Z,6.83
2018-04-22T22:41:21.161Z,8.63
2018-04-22T22:43:48.616Z,6.27
2018-04-22T22:46:16.113Z,6.43
2018-04-22T22:48:43.502Z,6.67
2018-04-22T22:51:11.722Z,6.77
2018-04-22T22:53:39.179Z,6.37
2018-04-22T22:56:06.625Z,6.17
2018-04-22T22:58:34.091Z,6.73
2018-04-22T23:01:01.558Z,6.70
2018-04-22T23:03:29.001Z,6.80
2018-04-22T23:05:56.461Z,6.10
2018-04-22T23:08:23.919Z,6.57
2018-04-22T23:10:51.437Z,7.17
2018-04-22T23:13:18.893Z,6.60
2018-04-22T23:15:46.353Z,7.53
2018-04-22T23:18:13.799Z,6.40
2018-04-22T23:20:42.032Z,6.17
2018-04-22T23:23:09.472Z,6.40
2018-04-22T23:25:36.942Z,6.97
2018-04-22T23:28:04.398Z,7.47
2018-04-22T23:30:31.865Z,6.53
2018-04-22T23:32:59.312Z,6.47
2018-04-22T23:35:26.762Z,7.23
2018-04-22T23:37:54.218Z,5.73
2018-04-22T23:40:21.675Z,7.07
2018-04-22T23:42:49.182Z,6.63
2018-04-22T23:45:16.589Z,5.60
2018-04-22T23:47:44.051Z,7.27
2018-04-22T23:50:11.498Z,6.40
2018-04-22T23:52:38.965Z,6.93
2018-04-22T23:55:07.186Z,5.43
2018-04-22T23:57:35.417Z,8.00
